Caper — WDF5956 — position and weather

sailwx.info

Track history (hours):
 
Tides and Currents Weather Stations Pressure Air Temp Water Temp Dewpoint Dewpoint Depression Visibility Wind Speed Wind Dir Waves Ship Positions

Caper

Owner: Barlow, Herbert R, Mercer Island, WA. More information available from US FCC via Universal Licensing System and Coast Guard Vessel Documentation Center.

Last reported at 2014-Oct-22 21:17 UTC. Time now 2014-Oct-30 23:43 UTC.
Position N 49°10' W 123°56'.
Warning: this ship's position is 8 days out of date.

Length 20 m; draft 3 m.

Type: Pleasure craft. MMSI: 367469080.

Date/timePositionNaut miles runAvg speedWind from/ knotsBaromVisibWave heightAir tempDewpointWater temp
2014-Oct-22 21:17N 49°10' W 123°56'43 7.4
2014-Oct-22 15:33N 48°39' W 123°12'3 0.7
2014-Oct-22 11:31N 48°37' W 123°09'0 0.0
2014-Oct-22 06:31N 48°37' W 123°09'6 0.6
2014-Oct-21 20:33N 48°31' W 123°10'4611.3
2014-Oct-21 16:30N 47°53' W 122°30'711.6
2014-Oct-21 15:55N 47°47' W 122°27'7 8.6
2014-Oct-21 15:05N 47°40' W 122°24'0 0.0
2014-Oct-21 15:05N 47°40' W 122°24'3 4.8
2014-Oct-21 14:33N 47°39' W 122°21'0 5.6
2014-Oct-21 14:31N 47°39' W 122°20'1 0.1
2014-Oct-21 08:16N 47°38' W 122°20'0 0.0
2014-Oct-21 07:55N 47°38' W 122°20'0 0.0
2014-Oct-21 07:13N 47°38' W 122°20'0 0.0
2014-Oct-21 07:10N 47°38' W 122°20'0 0.0
2014-Oct-21 06:28N 47°38' W 122°20'0 0.0
2014-Oct-21 06:10N 47°38' W 122°20'0 0.0
2014-Oct-21 05:25N 47°38' W 122°20'0 0.0
2014-Oct-21 05:25N 47°38' W 122°20'0 0.0
2014-Oct-21 02:19N 47°38' W 122°20'0 0.0
2014-Oct-20 14:16N 47°38' W 122°20'0 0.0
2014-Oct-20 04:19N 47°38' W 122°20'0 0.0
2014-Oct-19 21:04N 47°38' W 122°20'0 0.0
2014-Oct-19 19:46N 47°38' W 122°20'0 0.0
2014-Oct-19 16:19N 47°38' W 122°20'0 0.0
2014-Oct-19 15:31N 47°38' W 122°20'0 0.0
2014-Oct-19 12:07N 47°38' W 122°20'0 0.0
2014-Oct-19 01:28N 47°38' W 122°20'0 0.0
2014-Oct-18 17:34N 47°38' W 122°20'0 0.0
2014-Oct-18 17:31N 47°38' W 122°20'0 0.0
2014-Oct-18 13:28N 47°38' W 122°20'0 0.0
2014-Oct-18 13:28N 47°38' W 122°20'0 0.0
2014-Oct-18 10:07N 47°38' W 122°20'0 0.0
2014-Oct-18 09:28N 47°38' W 122°20'0 0.0
2014-Oct-17 00:23N 47°38' W 122°20'1 0.2
2014-Oct-16 18:06N 47°39' W 122°20'0 0.0
2014-Oct-16 16:25N 47°39' W 122°20'1 1.2
2014-Oct-16 15:31N 47°38' W 122°20'0 0.0
2014-Oct-16 14:13N 47°38' W 122°20'0 0.0
2014-Oct-16 13:13N 47°38' W 122°20'0 0.0
2014-Oct-15 07:19N 47°38' W 122°20'0 0.0
2014-Oct-14 13:28N 47°38' W 122°20'0 0.0
2014-Oct-14 13:19N 47°38' W 122°20'0 0.0
2014-Oct-14 04:16N 47°38' W 122°20'0 0.0
2014-Oct-14 03:58N 47°38' W 122°20'0 0.0
2014-Oct-13 22:07N 47°38' W 122°20'0 0.1
2014-Oct-13 22:01N 47°38' W 122°20'  
Track history (hours):
 
Tides and Currents Weather Stations Pressure Air Temp Water Temp Dewpoint Dewpoint Depression Visibility Wind Speed Wind Dir Waves Ship Positions

Caper

Owner: Barlow, Herbert R, Mercer Island, WA. More information available from US FCC via Universal Licensing System and Coast Guard Vessel Documentation Center.

Last reported at 2014-Oct-22 21:17 UTC. Time now 2014-Oct-30 23:43 UTC.
Position N 49°10' W 123°56'.
Warning: this ship's position is 8 days out of date.

Length 20 m; draft 3 m.

Type: Pleasure craft. MMSI: 367469080.

Date/timePositionNaut miles runAvg speedWind from/ knotsBaromVisibWave heightAir tempDewpointWater temp
2014-Oct-22 21:17N 49°10' W 123°56'43 7.4
2014-Oct-22 15:33N 48°39' W 123°12'3 0.7
2014-Oct-22 11:31N 48°37' W 123°09'0 0.0
2014-Oct-22 06:31N 48°37' W 123°09'6 0.6
2014-Oct-21 20:33N 48°31' W 123°10'4611.3
2014-Oct-21 16:30N 47°53' W 122°30'711.6
2014-Oct-21 15:55N 47°47' W 122°27'7 8.6
2014-Oct-21 15:05N 47°40' W 122°24'0 0.0
2014-Oct-21 15:05N 47°40' W 122°24'3 4.8
2014-Oct-21 14:33N 47°39' W 122°21'0 5.6
2014-Oct-21 14:31N 47°39' W 122°20'1 0.1
2014-Oct-21 08:16N 47°38' W 122°20'0 0.0
2014-Oct-21 07:55N 47°38' W 122°20'0 0.0
2014-Oct-21 07:13N 47°38' W 122°20'0 0.0
2014-Oct-21 07:10N 47°38' W 122°20'0 0.0
2014-Oct-21 06:28N 47°38' W 122°20'0 0.0
2014-Oct-21 06:10N 47°38' W 122°20'0 0.0
2014-Oct-21 05:25N 47°38' W 122°20'0 0.0
2014-Oct-21 05:25N 47°38' W 122°20'0 0.0
2014-Oct-21 02:19N 47°38' W 122°20'0 0.0
2014-Oct-20 14:16N 47°38' W 122°20'0 0.0
2014-Oct-20 04:19N 47°38' W 122°20'0 0.0
2014-Oct-19 21:04N 47°38' W 122°20'0 0.0
2014-Oct-19 19:46N 47°38' W 122°20'0 0.0
2014-Oct-19 16:19N 47°38' W 122°20'0 0.0
2014-Oct-19 15:31N 47°38' W 122°20'0 0.0
2014-Oct-19 12:07N 47°38' W 122°20'0 0.0
2014-Oct-19 01:28N 47°38' W 122°20'0 0.0
2014-Oct-18 17:34N 47°38' W 122°20'0 0.0
2014-Oct-18 17:31N 47°38' W 122°20'0 0.0
2014-Oct-18 13:28N 47°38' W 122°20'0 0.0
2014-Oct-18 13:28N 47°38' W 122°20'0 0.0
2014-Oct-18 10:07N 47°38' W 122°20'0 0.0
2014-Oct-18 09:28N 47°38' W 122°20'0 0.0
2014-Oct-17 00:23N 47°38' W 122°20'1 0.2
2014-Oct-16 18:06N 47°39' W 122°20'0 0.0
2014-Oct-16 16:25N 47°39' W 122°20'1 1.2
2014-Oct-16 15:31N 47°38' W 122°20'0 0.0
2014-Oct-16 14:13N 47°38' W 122°20'0 0.0
2014-Oct-16 13:13N 47°38' W 122°20'0 0.0
2014-Oct-15 07:19N 47°38' W 122°20'0 0.0
2014-Oct-14 13:28N 47°38' W 122°20'0 0.0
2014-Oct-14 13:19N 47°38' W 122°20'0 0.0
2014-Oct-14 04:16N 47°38' W 122°20'0 0.0
2014-Oct-14 03:58N 47°38' W 122°20'0 0.0
2014-Oct-13 22:07N 47°38' W 122°20'0 0.1
2014-Oct-13 22:01N 47°38' W 122°20'  

Dump ship's entire track history